Terminal Aerodrome Forecast
Issued by NWS Sterling, VA

Current Version | Previous Version | Graphics & Text | Print | Product List | Glossary On
Versions: 1 2 3 4 5 6 7 8 9 10 11 12 13 14 15 16 17 18 19 20 21
000
FTUS41 KLWX 220540
TAFIAD
TAF
KIAD 220540Z 2206/2312 VRB03KT P6SM OVC100
     FM221200 04005KT P6SM OVC100
     FM221800 17007KT P6SM BKN100
     FM230400 VRB03KT P6SM BKN050=

USA.gov is the U.S. government's official web portal to all federal, state and local government web resources and services.